ETNL Airport Information

Runway Information
Runway 10 Length 8202 ft width 148 ft
Elevation 138 ft Threshold 0 ft Heading 98
Runway 28 Length 8202 ft Width 148 ft
Elevation 110 ft Threshold 0 ft Heading 278
Airport Frequencies
Type ACC Name BERLIN RAD Frequency 126.175 MHZ
Type INFO Name BERLIN INF Frequency 132.65 MHZ
Type RDR Name RADAR Frequency 34.4 MHZ
Type RDR Name RADAR Frequency 123.3 MHZ
Type TWR Name TWR Frequency 118.425 MHZ
Airport Navaids
Type TACAN Name Laage Frequency 108250 KHZ
Airport Weather Information & NOTAM
ADDS - METARS form results

(0153 UTC 19 January 2018)
 
METAR text: ETNL 190120Z 26008KT 9999 BKN021 01/M00 Q0998 WHT
Conditions at: ETNL (LAAGE , DE) observed 0120 UTC 19 January 2018
Temperature: 1.0°C (34°F)
Dewpoint: 0.0°C (32°F) [RH = 93%]
Pressure (altimeter): 29.47 inches Hg (998.0 mb)
Winds: from the W (260 degrees) at 9 MPH (8 knots; 4.2 m/s)
Visibility: 6 or more miles (10+ km)
Ceiling: 2100 feet AGL
Clouds: broken clouds at 2100 feet AGL
Weather: no significant weather observed at this time